createdAt,value
2023-04-21T00:01:23.459Z,19.47
2023-04-21T00:03:52.149Z,19.43
2023-04-21T00:06:23.137Z,19.23
2023-04-21T00:08:51.969Z,18.27
2023-04-21T00:11:20.864Z,17.77
2023-04-21T00:13:50.828Z,18.40
2023-04-21T00:16:19.406Z,18.50
2023-04-21T00:18:49.036Z,18.07
2023-04-21T00:21:17.917Z,17.87
2023-04-21T00:23:47.481Z,14.23
2023-04-21T00:26:16.146Z,16.10
2023-04-21T00:28:44.841Z,14.47
2023-04-21T00:31:14.870Z,14.90
2023-04-21T00:33:43.463Z,14.20
2023-04-21T00:36:12.063Z,14.20
2023-04-21T00:38:40.685Z,14.10
2023-04-21T00:41:09.849Z,13.20
2023-04-21T00:43:38.699Z,12.83
2023-04-21T00:46:07.337Z,12.97
2023-04-21T00:48:37.444Z,13.83
2023-04-21T00:51:06.135Z,12.20
2023-04-21T00:53:34.762Z,12.73
2023-04-21T00:56:03.464Z,13.53
2023-04-21T00:58:34.245Z,14.03
2023-04-21T01:01:03.002Z,14.07
2023-04-21T01:03:32.489Z,15.23
2023-04-21T01:06:02.890Z,14.63
2023-04-21T01:08:31.818Z,13.53
2023-04-21T01:11:00.446Z,14.63
2023-04-21T01:13:29.178Z,15.60
2023-04-21T01:15:57.824Z,14.43
2023-04-21T01:18:26.523Z,14.60
2023-04-21T01:20:55.136Z,15.53
2023-04-21T01:23:25.267Z,15.20
2023-04-21T01:25:55.822Z,17.27
2023-04-21T01:28:24.855Z,14.80
2023-04-21T01:30:53.890Z,19.00
2023-04-21T01:33:23.097Z,15.90
2023-04-21T01:35:51.912Z,17.47
2023-04-21T01:38:20.643Z,16.17
2023-04-21T01:40:53.153Z,17.40
2023-04-21T01:43:24.506Z,18.23
2023-04-21T01:45:53.283Z,17.67
2023-04-21T01:48:22.004Z,18.40
2023-04-21T01:50:50.528Z,19.90
2023-04-21T01:53:19.145Z,20.70
2023-04-21T01:55:47.698Z,21.67
2023-04-21T01:58:17.620Z,22.67
2023-04-21T02:00:46.131Z,20.57
2023-04-21T02:03:14.768Z,20.17
2023-04-21T02:05:43.797Z,22.90
2023-04-21T02:08:12.369Z,19.70
2023-04-21T02:10:41.171Z,18.50
2023-04-21T02:13:09.762Z,22.10
2023-04-21T02:15:40.832Z,19.93
2023-04-21T02:18:09.579Z,20.27
2023-04-21T02:20:38.982Z,21.33
2023-04-21T02:23:07.522Z,19.20
2023-04-21T02:25:36.269Z,20.97
2023-04-21T02:28:04.982Z,21.67
2023-04-21T02:30:34.957Z,22.57
2023-04-21T02:33:05.029Z,28.50
2023-04-21T02:35:34.843Z,29.43
2023-04-21T02:38:07.421Z,30.23
2023-04-21T02:40:36.055Z,24.70
2023-04-21T02:43:04.728Z,22.47
2023-04-21T02:45:33.370Z,33.30
2023-04-21T02:48:02.073Z,66.68
2023-04-21T02:50:32.182Z,39.73
2023-04-21T02:53:00.890Z,30.03
2023-04-21T02:55:29.570Z,35.23
2023-04-21T02:57:58.160Z,34.23
2023-04-21T03:00:27.482Z,37.67
2023-04-21T03:02:57.678Z,38.13
2023-04-21T03:05:26.369Z,43.17
2023-04-21T03:07:56.461Z,43.70
2023-04-21T03:10:25.321Z,18.80
2023-04-21T03:12:53.920Z,38.90
2023-04-21T03:15:22.902Z,38.03
2023-04-21T03:17:51.919Z,34.80
2023-04-21T03:20:20.712Z,31.67
2023-04-21T03:22:49.415Z,28.80
2023-04-21T03:25:19.616Z,24.47
2023-04-21T03:27:48.192Z,17.53
2023-04-21T03:30:16.894Z,14.40
2023-04-21T03:32:45.571Z,13.40
2023-04-21T03:35:14.399Z,22.03
2023-04-21T03:37:43.189Z,17.63
2023-04-21T03:40:13.149Z,15.07
2023-04-21T03:42:43.361Z,14.73
2023-04-21T03:45:12.228Z,17.70
2023-04-21T03:47:40.961Z,25.67
2023-04-21T03:50:10.361Z,73.60
2023-04-21T03:52:39.058Z,86.43
2023-04-21T03:55:11.758Z,77.57
2023-04-21T03:57:45.815Z,56.13
2023-04-21T04:00:15.597Z,63.70
2023-04-21T04:02:44.424Z,49.50
2023-04-21T04:05:13.436Z,46.07
2023-04-21T04:07:42.166Z,54.20
2023-04-21T04:10:11.903Z,39.80
2023-04-21T04:12:40.865Z,20.37
2023-04-21T04:15:11.457Z,21.50
2023-04-21T04:17:40.225Z,16.53
2023-04-21T04:20:10.035Z,11.33
2023-04-21T04:22:38.620Z,11.43
2023-04-21T04:25:07.582Z,19.90
2023-04-21T04:27:36.314Z,11.83
2023-04-21T04:30:05.856Z,11.37
2023-04-21T04:32:38.325Z,11.23
2023-04-21T04:35:08.347Z,12.37
2023-04-21T04:37:51.870Z,11.10
2023-04-21T04:40:20.875Z,9.70
2023-04-21T04:42:49.504Z,10.53
2023-04-21T04:45:18.094Z,11.70
2023-04-21T04:47:48.141Z,11.33
2023-04-21T04:50:16.743Z,13.03
2023-04-21T04:52:47.237Z,16.77
2023-04-21T04:55:15.947Z,17.83
2023-04-21T04:57:44.504Z,18.87
2023-04-21T05:00:14.687Z,16.13
2023-04-21T05:02:43.372Z,19.47
2023-04-21T05:05:13.665Z,22.00
2023-04-21T05:07:42.365Z,17.40
2023-04-21T05:10:11.161Z,21.00
2023-04-21T05:12:39.786Z,15.37
2023-04-21T05:15:09.406Z,18.67
2023-04-21T05:17:38.162Z,18.20
2023-04-21T05:20:07.607Z,24.70
2023-04-21T05:22:40.731Z,18.80
2023-04-21T05:25:11.637Z,22.80
2023-04-21T05:27:40.210Z,17.27
2023-04-21T05:30:09.932Z,13.87
2023-04-21T05:32:38.687Z,15.77
2023-04-21T05:35:08.240Z,12.83
2023-04-21T05:37:37.144Z,12.80
2023-04-21T05:40:08.188Z,18.23
2023-04-21T05:42:36.767Z,17.57
2023-04-21T05:45:06.639Z,13.27
2023-04-21T05:47:35.480Z,18.83
2023-04-21T05:50:04.217Z,21.00
2023-04-21T05:52:32.948Z,10.93
2023-04-21T05:55:01.512Z,10.87
2023-04-21T05:57:32.426Z,11.03
2023-04-21T06:00:01.007Z,11.47
2023-04-21T06:02:29.794Z,10.53
2023-04-21T06:04:58.632Z,12.13
2023-04-21T06:07:27.490Z,13.27
2023-04-21T06:09:58.090Z,13.77
2023-04-21T06:12:26.863Z,15.57
2023-04-21T06:14:57.909Z,21.67
2023-04-21T06:17:26.713Z,18.50
2023-04-21T06:19:56.224Z,21.60
2023-04-21T06:22:24.861Z,26.40
2023-04-21T06:24:53.556Z,25.27
2023-04-21T06:27:22.137Z,22.87
2023-04-21T06:29:55.577Z,19.50
2023-04-21T06:32:25.689Z,17.97
2023-04-21T06:34:54.752Z,18.10
2023-04-21T06:37:23.377Z,22.33
2023-04-21T06:39:51.924Z,19.83
2023-04-21T06:42:20.578Z,19.93
2023-04-21T06:44:50.820Z,20.80
2023-04-21T06:47:19.852Z,20.60
2023-04-21T06:49:49.885Z,19.13
2023-04-21T06:52:20.182Z,19.40
2023-04-21T06:54:48.940Z,16.17
2023-04-21T06:57:17.701Z,20.57
2023-04-21T06:59:46.436Z,12.90
2023-04-21T07:02:15.207Z,18.97
2023-04-21T07:04:44.029Z,10.47
2023-04-21T07:07:14.575Z,8.97
2023-04-21T07:09:43.269Z,9.43
2023-04-21T07:12:11.812Z,9.87
2023-04-21T07:14:40.534Z,8.70
2023-04-21T07:17:09.293Z,8.53
2023-04-21T07:19:38.062Z,8.57
2023-04-21T07:22:06.734Z,8.47
2023-04-21T07:24:37.624Z,8.07
2023-04-21T07:27:06.471Z,8.27
2023-04-21T07:29:35.144Z,7.70
2023-04-21T07:32:03.759Z,8.40
2023-04-21T07:34:32.561Z,8.70
2023-04-21T07:37:01.146Z,9.00
2023-04-21T07:39:29.774Z,8.30
2023-04-21T07:41:59.848Z,8.27
2023-04-21T07:44:29.549Z,8.93
2023-04-21T07:46:58.242Z,8.57
2023-04-21T07:49:27.086Z,8.13
2023-04-21T07:51:55.904Z,8.87
2023-04-21T07:54:24.482Z,8.30
2023-04-21T07:56:53.008Z,8.73
2023-04-21T07:59:23.061Z,8.53
2023-04-21T08:01:52.138Z,8.48
2023-04-21T08:04:21.036Z,8.00
2023-04-21T08:06:50.021Z,9.27
2023-04-21T08:09:19.097Z,9.02
2023-04-21T08:11:47.838Z,9.57
2023-04-21T08:14:16.547Z,12.23
2023-04-21T08:16:46.609Z,8.90
2023-04-21T08:19:15.397Z,8.93
2023-04-21T08:21:44.092Z,7.00
2023-04-21T08:24:12.860Z,8.98
2023-04-21T08:26:41.601Z,10.82
2023-04-21T08:29:10.915Z,8.75
2023-04-21T08:31:39.724Z,30.10
2023-04-21T08:34:09.850Z,49.22
2023-04-21T08:36:38.518Z,54.33
2023-04-21T08:39:07.675Z,31.05
2023-04-21T08:41:36.353Z,32.05
2023-04-21T08:44:06.177Z,7.30
2023-04-21T08:46:36.447Z,7.38
2023-04-21T08:49:05.343Z,16.15
2023-04-21T08:51:35.603Z,10.60
2023-04-21T08:54:04.230Z,17.85
2023-04-21T08:56:32.789Z,11.13
2023-04-21T08:59:01.424Z,12.02
2023-04-21T09:01:30.170Z,20.27
2023-04-21T09:04:18.028Z,17.02
2023-04-21T09:06:48.415Z,12.88
2023-04-21T09:09:17.413Z,12.95
2023-04-21T09:11:46.150Z,19.35
2023-04-21T09:14:14.839Z,24.00
2023-04-21T09:16:45.524Z,24.70
2023-04-21T09:19:16.819Z,23.23
2023-04-21T09:21:47.474Z,29.42
2023-04-21T09:24:16.614Z,27.10
2023-04-21T09:26:45.202Z,24.63
2023-04-21T09:29:13.898Z,21.30
2023-04-21T09:31:42.618Z,28.63
2023-04-21T09:34:20.770Z,23.02
2023-04-21T09:36:50.991Z,37.63
2023-04-21T09:39:38.282Z,50.08
2023-04-21T09:42:11.680Z,40.67
2023-04-21T09:44:51.947Z,49.20
2023-04-21T09:47:25.670Z,47.10
2023-04-21T09:49:54.606Z,55.38
2023-04-21T09:52:25.662Z,61.17
2023-04-21T09:55:01.596Z,61.83
2023-04-21T09:57:33.020Z,12.75
2023-04-21T10:00:05.450Z,11.30
2023-04-21T10:02:36.931Z,13.50
2023-04-21T10:05:08.230Z,11.20
2023-04-21T10:07:38.289Z,11.85
2023-04-21T10:10:10.494Z,18.15
2023-04-21T10:12:39.884Z,17.38
2023-04-21T10:15:32.982Z,10.60
2023-04-21T10:18:30.399Z,12.48
2023-04-21T10:21:02.871Z,9.48
2023-04-21T10:23:37.969Z,9.55
2023-04-21T10:26:11.893Z,8.27
2023-04-21T10:28:45.071Z,7.88
2023-04-21T10:31:24.716Z,8.10
2023-04-21T10:34:18.747Z,7.00
2023-04-21T10:37:16.348Z,7.35
2023-04-21T10:39:57.373Z,6.93
2023-04-21T10:42:31.428Z,6.45
2023-04-21T10:45:08.182Z,7.07
2023-04-21T10:47:45.886Z,6.80
2023-04-21T10:50:20.532Z,8.68
2023-04-21T10:52:54.891Z,8.73
2023-04-21T10:55:28.501Z,7.90
2023-04-21T10:57:57.375Z,7.82
2023-04-21T11:00:27.281Z,9.15
2023-04-21T11:02:58.360Z,8.93
2023-04-21T11:05:36.585Z,9.95
2023-04-21T11:08:15.876Z,12.23
2023-04-21T11:10:54.635Z,10.68
2023-04-21T11:13:25.003Z,10.05
2023-04-21T11:16:06.482Z,12.25
2023-04-21T11:18:42.153Z,13.07
2023-04-21T11:21:13.492Z,11.32
2023-04-21T11:23:43.113Z,13.18
2023-04-21T11:26:13.426Z,12.82
2023-04-21T11:28:43.153Z,12.02
2023-04-21T11:31:12.135Z,12.73
2023-04-21T11:33:41.172Z,13.18
2023-04-21T11:36:10.558Z,12.23
2023-04-21T11:38:40.881Z,13.90
2023-04-21T11:41:11.183Z,13.65
2023-04-21T11:43:41.284Z,14.52
2023-04-21T11:46:14.539Z,13.13
2023-04-21T11:48:44.470Z,12.70
2023-04-21T11:51:18.325Z,12.85
2023-04-21T11:53:49.296Z,12.50
2023-04-21T11:56:21.937Z,10.85
2023-04-21T11:58:53.753Z,13.63
2023-04-21T12:01:23.157Z,15.30
2023-04-21T12:03:56.021Z,11.82
2023-04-21T12:06:26.229Z,12.90
2023-04-21T12:08:59.082Z,13.43
2023-04-21T12:11:29.117Z,11.38
2023-04-21T12:14:00.704Z,13.75
2023-04-21T12:16:30.511Z,13.75
2023-04-21T12:18:59.166Z,11.80
2023-04-21T12:21:31.112Z,15.25
2023-04-21T12:23:59.686Z,13.23
2023-04-21T12:26:28.365Z,11.40
2023-04-21T12:28:56.911Z,10.95
2023-04-21T12:31:26.966Z,12.15
2023-04-21T12:33:55.549Z,13.95
2023-04-21T12:36:26.235Z,13.65
2023-04-21T12:38:55.005Z,14.73
2023-04-21T12:41:23.549Z,11.30
2023-04-21T12:43:52.399Z,13.23
2023-04-21T12:46:21.443Z,13.02
2023-04-21T12:48:52.562Z,11.07
2023-04-21T12:51:21.231Z,11.57
2023-04-21T12:53:49.908Z,11.00
2023-04-21T12:56:18.450Z,13.43
2023-04-21T12:58:48.503Z,11.15
2023-04-21T13:01:17.132Z,12.50
2023-04-21T13:03:46.161Z,10.82
2023-04-21T13:06:16.540Z,12.57
2023-04-21T13:08:45.228Z,12.30
2023-04-21T13:11:13.990Z,11.75
2023-04-21T13:13:42.620Z,11.52
2023-04-21T13:16:11.257Z,10.50
2023-04-21T13:18:40.084Z,11.70
2023-04-21T13:21:08.752Z,11.63
2023-04-21T13:23:38.808Z,11.35
2023-04-21T13:26:08.056Z,12.07
2023-04-21T13:28:36.882Z,11.95
2023-04-21T13:31:05.972Z,10.65
2023-04-21T13:33:35.570Z,13.20
2023-04-21T13:36:04.634Z,12.93
2023-04-21T13:38:34.300Z,9.98
2023-04-21T13:41:04.366Z,11.40
2023-04-21T13:43:33.155Z,10.43
2023-04-21T13:46:01.923Z,10.48
2023-04-21T13:48:30.927Z,10.55
2023-04-21T13:50:59.589Z,11.95
2023-04-21T13:53:28.166Z,11.30
2023-04-21T13:55:57.747Z,12.27
2023-04-21T13:58:28.013Z,12.20
2023-04-21T14:00:56.722Z,10.65
2023-04-21T14:03:25.397Z,11.80
2023-04-21T14:05:54.239Z,12.45
2023-04-21T14:08:23.315Z,12.35
2023-04-21T14:10:52.421Z,13.85
2023-04-21T14:13:33.895Z,12.90
2023-04-21T14:16:09.292Z,11.38
2023-04-21T14:18:40.877Z,11.30
2023-04-21T14:21:09.484Z,11.50
2023-04-21T14:23:38.068Z,22.08
2023-04-21T14:26:07.291Z,13.00
2023-04-21T14:28:35.918Z,20.15
2023-04-21T14:31:04.592Z,12.25
2023-04-21T14:33:35.524Z,14.43
2023-04-21T14:36:04.303Z,13.25
2023-04-21T14:38:34.579Z,12.82
2023-04-21T14:41:03.397Z,13.30
2023-04-21T14:43:32.802Z,12.18
2023-04-21T14:46:01.445Z,15.57
2023-04-21T14:48:30.076Z,17.00
2023-04-21T14:51:00.206Z,14.65
2023-04-21T14:53:28.827Z,14.43
2023-04-21T14:55:57.596Z,13.77
2023-04-21T14:58:26.314Z,12.75
2023-04-21T15:00:54.959Z,14.35
2023-04-21T15:03:23.661Z,14.23
2023-04-21T15:05:52.476Z,14.65
2023-04-21T15:08:22.617Z,13.90
2023-04-21T15:10:51.906Z,14.43
2023-04-21T15:13:20.530Z,16.25
2023-04-21T15:15:50.289Z,14.07
2023-04-21T15:18:18.997Z,14.45
2023-04-21T15:20:47.657Z,15.90
2023-04-21T15:23:16.772Z,16.17
2023-04-21T15:25:46.944Z,17.65
2023-04-21T15:28:15.549Z,17.65
2023-04-21T15:30:44.256Z,21.73
2023-04-21T15:33:12.978Z,16.90
2023-04-21T15:35:41.708Z,14.82
2023-04-21T15:38:10.310Z,16.13
2023-04-21T15:40:49.602Z,15.57
2023-04-21T15:43:29.343Z,17.40
2023-04-21T15:45:58.306Z,16.15
2023-04-21T15:48:27.154Z,15.75
2023-04-21T15:50:55.770Z,14.93
2023-04-21T15:53:26.559Z,15.00
2023-04-21T15:55:55.306Z,15.30
2023-04-21T15:58:24.312Z,12.82
2023-04-21T16:00:57.777Z,14.23
2023-04-21T16:03:30.364Z,12.30
2023-04-21T16:06:01.457Z,12.95
2023-04-21T16:08:34.577Z,12.00
2023-04-21T16:11:03.980Z,12.25
2023-04-21T16:13:36.041Z,13.18
2023-04-21T16:16:07.353Z,11.02
2023-04-21T16:18:41.463Z,10.55
2023-04-21T16:21:11.032Z,10.63
2023-04-21T16:23:43.961Z,10.27
2023-04-21T16:26:13.228Z,12.05
2023-04-21T16:28:43.014Z,11.35
2023-04-21T16:31:17.038Z,11.25
2023-04-21T16:33:46.381Z,11.73
2023-04-21T16:36:15.983Z,9.85
2023-04-21T16:39:26.646Z,9.45
2023-04-21T16:42:20.412Z,9.48
2023-04-21T16:45:18.305Z,8.85
2023-04-21T16:48:02.374Z,10.25
2023-04-21T16:51:27.416Z,8.15
2023-04-21T16:53:57.004Z,10.93
2023-04-21T16:56:47.110Z,39.00
2023-04-21T16:59:37.681Z,32.88
2023-04-21T17:02:12.375Z,10.73
2023-04-21T17:04:42.904Z,9.60
2023-04-21T17:07:15.213Z,10.82
2023-04-21T17:09:44.305Z,14.82
2023-04-21T17:12:13.380Z,16.38
2023-04-21T17:14:45.696Z,20.95
2023-04-21T17:17:15.195Z,36.72
2023-04-21T17:19:49.387Z,36.95
2023-04-21T17:22:21.148Z,42.50
2023-04-21T17:24:53.647Z,48.20
2023-04-21T17:27:28.667Z,61.05
2023-04-21T17:29:59.979Z,63.30
2023-04-21T17:32:33.262Z,70.22
2023-04-21T17:35:05.183Z,78.35
2023-04-21T17:37:35.352Z,79.55
2023-04-21T17:40:07.368Z,76.68
2023-04-21T17:42:36.255Z,77.10
2023-04-21T17:45:06.190Z,55.22
2023-04-21T17:47:36.378Z,49.83
2023-04-21T17:50:09.487Z,42.63
2023-04-21T17:52:38.412Z,88.75
2023-04-21T17:55:10.883Z,78.97
2023-04-21T17:57:41.788Z,49.13
2023-04-21T18:00:12.022Z,43.75
2023-04-21T18:02:40.871Z,47.55
2023-04-21T18:05:13.826Z,42.00
2023-04-21T18:07:43.398Z,37.53
2023-04-21T18:10:12.383Z,29.98
2023-04-21T18:12:41.127Z,30.63
2023-04-21T18:15:11.880Z,27.25
2023-04-21T18:17:42.909Z,20.85
2023-04-21T18:20:15.227Z,88.50
2023-04-21T18:22:45.156Z,38.95
2023-04-21T18:25:14.475Z,26.00
2023-04-21T18:27:43.314Z,16.83
2023-04-21T18:30:12.277Z,13.37
2023-04-21T18:32:41.882Z,11.37
2023-04-21T18:35:11.132Z,11.13
2023-04-21T18:37:41.269Z,12.17
2023-04-21T18:40:11.359Z,10.63
2023-04-21T18:42:43.069Z,90.47
2023-04-21T18:45:12.687Z,91.15
2023-04-21T18:47:41.574Z,61.08
2023-04-21T18:50:11.405Z,25.40
2023-04-21T18:52:41.491Z,13.67
2023-04-21T18:55:11.022Z,12.20
2023-04-21T18:57:39.594Z,13.80
2023-04-21T19:00:10.422Z,13.77
2023-04-21T19:02:39.758Z,13.90
2023-04-21T19:05:08.945Z,13.93
2023-04-21T19:07:37.596Z,20.07
2023-04-21T19:10:15.301Z,24.67
2023-04-21T19:12:44.047Z,30.30
2023-04-21T19:15:15.783Z,30.20
2023-04-21T19:17:47.828Z,27.70
2023-04-21T19:20:28.577Z,27.57
2023-04-21T19:22:59.304Z,30.47
2023-04-21T19:25:29.813Z,30.97
2023-04-21T19:27:59.032Z,32.00
2023-04-21T19:30:28.216Z,38.07
2023-04-21T19:32:57.361Z,33.40
2023-04-21T19:35:26.780Z,38.50
2023-04-21T19:37:55.545Z,33.97
2023-04-21T19:40:24.428Z,33.30
2023-04-21T19:42:54.983Z,30.83
2023-04-21T19:45:23.871Z,32.37
2023-04-21T19:47:55.381Z,34.40
2023-04-21T19:50:24.587Z,33.57
2023-04-21T19:52:53.427Z,29.37
2023-04-21T19:55:22.468Z,33.27
2023-04-21T19:57:51.550Z,61.80
2023-04-21T20:00:22.201Z,48.43
2023-04-21T20:02:51.247Z,82.30
2023-04-21T20:05:20.619Z,101.30
2023-04-21T20:07:49.815Z,38.80
2023-04-21T20:10:26.086Z,29.83
2023-04-21T20:12:55.042Z,28.67
2023-04-21T20:15:27.615Z,29.60
2023-04-21T20:17:56.812Z,31.87
2023-04-21T20:20:25.497Z,27.67
2023-04-21T20:22:54.597Z,29.17
2023-04-21T20:25:23.758Z,24.57
2023-04-21T20:27:55.712Z,26.33
2023-04-21T20:30:26.529Z,26.70
2023-04-21T20:33:15.660Z,30.20
2023-04-21T20:35:49.404Z,24.87
2023-04-21T20:38:39.148Z,26.57
2023-04-21T20:41:09.513Z,25.40
2023-04-21T20:43:48.187Z,24.77
2023-04-21T20:46:24.429Z,27.33
2023-04-21T20:49:07.898Z,27.67
2023-04-21T20:51:41.407Z,32.37
2023-04-21T20:54:10.093Z,36.80
2023-04-21T20:56:38.714Z,32.03
2023-04-21T20:59:07.285Z,28.27
2023-04-21T21:01:39.956Z,34.80
2023-04-21T21:04:08.713Z,40.67
2023-04-21T21:06:37.504Z,34.83
2023-04-21T21:09:06.332Z,37.87
2023-04-21T21:11:34.923Z,37.33
2023-04-21T21:14:03.627Z,44.80
2023-04-21T21:16:32.296Z,41.10
2023-04-21T21:19:03.268Z,40.17
2023-04-21T21:21:31.924Z,40.97
2023-04-21T21:24:00.615Z,72.90
2023-04-21T21:26:29.255Z,22.70
2023-04-21T21:28:58.271Z,168.20
2023-04-21T21:31:26.989Z,24.23
2023-04-21T21:33:55.663Z,22.93
2023-04-21T21:36:26.407Z,23.70
2023-04-21T21:38:55.046Z,23.83
2023-04-21T21:41:23.723Z,26.27
2023-04-21T21:43:52.336Z,29.27
2023-04-21T21:46:22.341Z,30.97
2023-04-21T21:48:50.998Z,35.33
2023-04-21T21:51:19.876Z,28.63
2023-04-21T21:53:49.855Z,34.10
2023-04-21T21:56:20.509Z,37.63
2023-04-21T21:58:49.278Z,34.93
2023-04-21T22:01:18.423Z,38.87
2023-04-21T22:03:47.458Z,41.33
2023-04-21T22:06:17.312Z,37.77
2023-04-21T22:08:46.203Z,42.47
2023-04-21T22:11:16.613Z,38.97
2023-04-21T22:13:45.247Z,36.73
2023-04-21T22:16:14.296Z,36.80
2023-04-21T22:18:43.218Z,37.83
2023-04-21T22:21:11.914Z,35.63
2023-04-21T22:23:40.635Z,33.70
2023-04-21T22:26:09.815Z,35.33
2023-04-21T22:28:41.967Z,31.30
2023-04-21T22:31:10.721Z,33.27
2023-04-21T22:33:39.383Z,35.10
2023-04-21T22:36:09.995Z,31.03
2023-04-21T22:38:39.105Z,30.57
2023-04-21T22:41:08.194Z,32.70
2023-04-21T22:43:36.877Z,31.77
2023-04-21T22:46:07.696Z,29.80
2023-04-21T22:48:38.445Z,32.60
2023-04-21T22:51:07.701Z,33.07
2023-04-21T22:53:36.781Z,34.47
2023-04-21T22:56:05.843Z,35.60
2023-04-21T22:58:34.468Z,35.80
2023-04-21T23:01:03.333Z,41.80
2023-04-21T23:03:33.656Z,44.50
2023-04-21T23:06:02.434Z,46.77
2023-04-21T23:08:31.033Z,52.37
2023-04-21T23:10:59.898Z,59.70
2023-04-21T23:13:28.541Z,53.30
2023-04-21T23:15:57.292Z,43.13
2023-04-21T23:18:26.011Z,47.60
2023-04-21T23:20:56.164Z,40.60
2023-04-21T23:23:24.785Z,40.47
2023-04-21T23:25:53.552Z,34.03
2023-04-21T23:28:22.215Z,43.03
2023-04-21T23:30:50.833Z,28.00
2023-04-21T23:33:19.518Z,32.43
2023-04-21T23:35:48.398Z,35.20
2023-04-21T23:38:18.402Z,35.27
2023-04-21T23:40:46.983Z,45.67
2023-04-21T23:43:15.578Z,25.10
2023-04-21T23:45:44.373Z,24.30
2023-04-21T23:48:13.080Z,26.07
2023-04-21T23:50:41.650Z,26.50
2023-04-21T23:53:10.324Z,25.70
2023-04-21T23:55:40.404Z,36.43
2023-04-21T23:58:09.037Z,31.13
